Boise, ID

10:41 PM MDT on August 25, 2016 (GMT -0600)
Country Club Sub #11 | | Change Station

Elev 2808 ft 43.58 °N, 116.24 °W | Updated 0 second ago

Clear
Clear
61.5 °F
Feels Like 61.5 °F
N
0.0
Wind Variable Wind from South

Today
High -- | Low -- °F
--% Chance of Precip.
Yesterday
High -- | Low -- °F
Precip. -- in
Pressure 29.91 in
Visibility 10.0 miles
Clouds Clear
Dew Point 43 °F
Humidity 51%
Rainfall 0.00 in
Snow Depth Not available.
7:01 AM 8:31 PM
Last Quarter, 38% visible
METAR KBOI 260353Z 05003KT 10SM CLR 22/03 A2998 RMK AO2 SLP126 T02220033
Pressure 29.91 in
Visibility 10.0 miles
Clouds Clear
Dew Point 43 °F
Humidity 51%
Rainfall 0.00 in
Snow Depth Not available.
7:01 AM 8:31 PM
Last Quarter, 38% visible
METAR KBOI 260353Z 05003KT 10SM CLR 22/03 A2998 RMK AO2 SLP126 T02220033
A tropical disturbance pushing toward the Bahamas, is expected to develop into a tropical depression or storm, and will likely target Florida and the Gulf Coast this weekend into next week.

Right now, the disturbance remains a broad area of low pressure pushing through the Dominican Republic and Haiti, headed toward the southeast Bahamas. Rainfall totals over 3 inches (with locally higher amounts) are expected in HispaƱiola, particularly over elevated terrain.

10-Day Weather Forecast

Almanac

Astronomy

Aug. 25, 2016 Rise Set
Actual Time
Civil Twilight
Nautical Twilight
Astronomical Twilight
Moon
Length of Visible Light
Length of Day
Tomorrow will be .
, % of the Moon is Illuminated

Today's Extremes

State Highs State Lows

Community

WunderPhotos

Upload Photos

1,935,056 photos uploaded!

WunderBlog® & News

Nearby

Air Quality

  Air Quality AQ Index Pollutant
Not available.

Snow Depth

Station Depth Elevation

Earthquake Activity

City Distance Mag. Time & Date
Minimum magnitude displayed is 2.5.

Coastal Water Temperatures

Place Temperature

Stations

Nearby Weather Stations

Station Location Temp. Windchill Dew Point Humidity Wind Precip. Elev Updated Type
                   

Watches & Warnings

There are currently no watches in effect.